Latest Coastal Weather Observations for Moorabbin Airport

IDV60701

Issued at 1:02 pm EDT Thursday 8 December 2016 (issued every 10 minutes, with the page automatically refreshed every 10 minutes)

About coastal observations | Map of coastal stations | Coastal observations for VIC | Marine services | Other Formats
Station Details ID: 086077 Name: MOORABBIN AIRPORT Lat: -37.98 Lon: 145.10 Height: 12.1 m
Data from the previous 72 hours. | See also: Recent months at Moorabbin Airport
Date/Time
EDT
Temp
°C
Wind Pressure Rain since
9am
mm
Weather Cloud Vis
km
Sea
Height
m
Swell
Dir  Spd
kts
Gust
kts
hPa Trend Height
m
Period
s
Dir
08/12:30pm 16.7 W 12 16 997.5 - 5.8 - Partly cloudy 10 - - - -
08/12:00pm 15.7 W 11 17 997.6 - 5.8 Recent precip. Cloudy 10 - - - -
08/11:47am 15.1 W 12 17 997.7 - 5.8 - Partly cloudy 7 - - - -
08/11:30am 14.2 W 12 17 997.8 - 5.4 - Partly cloudy 4 - - - -
08/11:01am 14.0 WSW 19 29 997.8 - 2.8 - Partly cloudy 5 - - - -
08/11:00am 14.0 WSW 20 29 997.8 - 2.6 - Partly cloudy 5 - - - -
08/10:59am 14.0 WSW 19 29 997.7 - 2.6 - Partly cloudy 5 - - - -
08/10:51am 16.0 WNW 16 25 997.6 - 2.0 - Partly cloudy 10 - - - -
08/10:46am 18.8 NNW 18 28 997.1 - 2.0 - Partly cloudy 10 - - - -
08/10:30am 18.9 N 21 28 995.8 - 2.0 - Partly cloudy 10 - - - -
08/10:00am 18.5 N 18 25 995.9 - 2.0 - Partly cloudy 10 - - - -
08/09:30am 17.5 N 21 27 996.0 - 1.2 - Partly cloudy 10 - - - -
08/09:20am 17.7 N 21 28 996.3 - 1.0 - Partly cloudy 10 - - - -
08/09:00am 17.5 N 22 30 996.8 - 3.2 Rain Mostly cloudy 5 - - - -
08/08:57am 17.6 N 22 32 996.7 - 2.8 - Partly cloudy 5 - - - -
08/08:34am 17.9 N 22 32 997.0 - 1.4 - Partly cloudy 10 - - - -
08/08:30am 18.2 N 23 32 997.0 - 1.4 - Partly cloudy 10 - - - -
08/08:24am 18.6 N 19 29 996.9 - 1.0 - Partly cloudy 10 - - - -
08/08:00am 18.9 N 18 27 997.1 - 1.0 - Partly cloudy 10 - - - -
08/07:30am 18.4 N 16 20 998.1 - 0.8 - Partly cloudy 10 - - - -
08/07:00am 20.1 NNW 17 24 998.7 - 0.2 - Cloudy 10 - - - -
08/06:34am 22.2 NNW 23 34 999.0 - 0.0 - Cloudy 10 - - - -
08/06:30am 22.8 NNW 23 31 999.1 - 0.0 - Cloudy 10 - - - -
08/06:06am 25.7 NNW 15 29 998.6 - 0.0 - Partly cloudy 10 - - - -
08/06:00am 25.7 NNW 15 20 998.5 - 0.0 - Cloudy 10 - - - -
08/05:30am 25.8 N 19 27 997.5 - 0.0 - Partly cloudy 10 - - - -
08/05:08am 26.2 N 22 35 997.1 - 0.0 - - 10 - - - -
08/05:00am 25.9 N 20 27 997.1 - 0.0 - - 10 - - - -
08/04:30am 24.7 N 19 25 997.0 - 0.0 - - 10 - - - -
08/04:00am 24.6 N 19 24 997.4 - 0.0 - - 10 - - - -
08/03:30am 24.1 N 18 25 998.4 - 0.0 - - 10 - - - -
08/03:00am 24.0 NNE 14 22 999.0 - 0.0 - - 10 - - - -
08/02:30am 23.8 NNE 13 18 999.7 - 0.0 - - 10 - - - -
08/02:00am 22.7 NNE 10 13 1001.1 - 0.0 - - 10 - - - -
08/01:30am 21.4 NE 8 9 1001.9 - 0.0 - - 10 - - - -
08/01:00am 22.3 NNE 10 14 1002.7 - 0.0 - Partly cloudy 10 - - - -
08/12:30am 22.4 NNE 9 13 1003.4 - 0.0 - - 10 - - - -
08/12:00am 21.2 NNE 7 9 1004.3 - 0.0 - Partly cloudy 10 - - - -
 
Date/Time
EDT
Temp
°C
Wind Pressure Rain since
9am
mm
Weather Cloud Vis
km
Sea
Height
m
Swell
Dir  Spd
kts
Gust
kts
hPa Trend Height
m
Period
s
Dir
07/11:30pm 16.5 ENE 5 6 1004.7 - 0.0 - - 10 - - - -
07/11:00pm 17.1 ESE 4 5 1005.2 - 0.0 - - 10 - - - -
07/10:30pm 17.8 ESE 6 8 1005.6 - 0.0 - - 10 - - - -
07/10:00pm 18.4 ESE 4 5 1006.1 - 0.0 - - 10 - - - -
07/09:30pm 19.4 ESE 6 8 1006.6 - 0.0 - - 10 - - - -
07/09:00pm 20.1 ESE 9 11 1006.9 - 0.0 - - 10 - - - -
07/08:30pm 21.1 ESE 9 13 1007.1 - 0.0 - - 10 - - - -
07/08:00pm 22.1 SE 13 17 1007.4 - 0.0 - - 10 - - - -
07/07:30pm 23.8 SE 13 15 1007.4 - 0.0 - - 10 - - - -
07/07:00pm 24.9 SE 12 16 1007.6 - 0.0 - - 10 - - - -
07/06:30pm 25.6 SE 13 17 1007.7 - 0.0 - - 10 - - - -
07/06:00pm 26.0 SE 11 15 1008.1 - 0.0 - - 10 - - - -
07/05:30pm 27.2 S 7 10 1008.4 - 0.0 - - 10 - - - -
07/05:00pm 26.2 S 9 11 1009.1 - 0.0 - - 10 - - - -
07/04:30pm 26.5 SSW 10 15 1009.5 - 0.0 - - 10 - - - -
07/04:00pm 25.0 S 9 13 1010.2 - 0.0 - - 10 - - - -
07/03:30pm 24.0 S 9 11 1011.0 - 0.0 - - 10 - - - -
07/03:00pm 22.0 S 9 13 1011.7 - 0.0 - - 10 - - - -
07/02:30pm 21.4 SSW 9 14 1012.4 - 0.0 - - 10 - - - -
07/02:00pm 21.0 SW 10 13 1012.8 - 0.0 - - 10 - - - -
07/01:30pm 21.3 SW 9 11 1013.2 - 0.0 - - 10 - - - -
07/01:00pm 21.1 SSW 8 11 1013.7 - 0.0 - - 10 - - - -
07/12:30pm 20.0 WSW 6 9 1014.2 - 0.0 - - 10 - - - -
07/12:00pm 19.9 WSW 8 11 1014.6 - 0.0 - - 10 - - - -
07/11:30am 19.0 WSW 9 12 1014.9 - 0.0 - - 10 - - - -
07/11:00am 18.9 SW 7 11 1014.9 - 0.0 - - 10 - - - -
07/10:30am 18.3 SSW 3 5 1015.1 - 0.0 - - 10 - - - -
07/10:00am 18.2 N 3 9 1015.3 - 0.0 - - 10 - - - -
07/09:30am 17.2 ENE 3 7 1015.5 - 0.0 - - 10 - - - -
07/09:00am 16.2 ENE 4 6 1015.5 - 0.0 - - 10 - - - -
07/08:30am 15.6 E 3 5 1015.7 - 0.0 - - 10 - - - -
07/08:00am 14.9 NE 1 3 1015.7 - 0.0 - - 10 - - - -
07/07:30am 12.9 N 4 5 1015.6 - 0.0 - - 10 - - - -
07/07:00am 11.6 CALM 0 0 1015.6 - 0.0 - - 10 - - - -
07/06:30am 10.2 CALM 0 0 1015.5 - 0.0 - - 10 - - - -
07/06:00am 8.8 CALM 0 0 1015.3 - 0.0 - - 10 - - - -
07/05:30am 9.9 CALM 0 0 1015.0 - 0.0 - - 10 - - - -
07/05:00am 10.2 CALM 0 0 1014.7 - 0.0 - - 10 - - - -
07/04:30am 9.8 CALM 0 0 1014.5 - 0.0 - - 10 - - - -
07/04:00am 9.4 CALM 0 0 1014.4 - 0.0 - - 10 - - - -
07/03:30am 9.7 CALM 0 0 1014.4 - 0.0 - - 10 - - - -
07/03:00am 10.0 CALM 0 0 1014.6 - 0.0 - - 10 - - - -
07/02:30am 9.9 CALM 0 0 1015.0 - 0.0 - - 10 - - - -
07/02:00am 10.6 CALM 0 0 1015.2 - 0.0 - - 10 - - - -
07/01:30am 10.6 CALM 0 0 1015.4 - 0.0 - - 10 - - - -
07/01:00am 11.2 CALM 0 0 1015.6 - 0.0 - - 10 - - - -
07/12:30am 11.1 CALM 0 0 1015.8 - 0.0 - - 10 - - - -
07/12:00am 11.2 E 5 5 1016.0 - 0.0 - - 10 - - - -
 
Date/Time
EDT
Temp
°C
Wind Pressure Rain since
9am
mm
Weather Cloud Vis
km
Sea
Height
m
Swell
Dir  Spd
kts
Gust
kts
hPa Trend Height
m
Period
s
Dir
06/11:30pm 12.0 E 4 5 1016.1 - 0.0 - - 10 - - - -
06/11:00pm 11.8 ESE 4 5 1016.3 - 0.0 - - 10 - - - -
06/10:30pm 12.6 ESE 6 7 1016.2 - 0.0 - - 10 - - - -
06/10:00pm 13.6 SSE 7 9 1016.0 - 0.0 - - 10 - - - -
06/09:30pm 14.3 SSE 9 11 1015.5 - 0.0 - - 10 - - - -
06/09:00pm 14.9 SSE 9 12 1015.1 - 0.0 - - 10 - - - -
06/08:30pm 15.5 S 9 12 1015.0 - 0.0 - - 10 - - - -
06/08:00pm 16.1 SSW 11 16 1014.8 - 0.0 - - 10 - - - -
06/07:30pm 16.6 SSW 13 17 1014.6 - 0.0 - - 10 - - - -
06/07:00pm 17.3 SSW 13 17 1014.4 - 0.0 - - 10 - - - -
06/06:30pm 17.5 SSW 13 18 1014.3 - 0.0 - - 10 - - - -
06/06:00pm 18.2 SSW 13 17 1013.9 - 0.0 - - 10 - - - -
06/05:30pm 18.5 SSW 13 17 1013.6 - 0.0 - - 10 - - - -
06/05:00pm 19.1 SW 12 16 1013.4 - 0.0 - - 10 - - - -
06/04:30pm 19.3 SSW 9 15 1013.5 - 0.0 - - 10 - - - -
06/04:00pm 19.3 SSW 9 12 1013.5 - 0.0 - - 10 - - - -
06/03:30pm 19.1 SSW 8 12 1013.6 - 0.0 - - 10 - - - -
06/03:00pm 19.1 SSW 8 12 1013.7 - 0.0 - - 10 - - - -
06/02:30pm 18.5 SSW 8 12 1013.9 - 0.0 - - 10 - - - -
06/02:00pm 17.7 SSW 9 13 1014.1 - 0.0 - - 10 - - - -
06/01:30pm 17.8 SSW 9 15 1014.0 - 0.0 - - 10 - - - -
06/01:00pm 17.7 SSW 11 15 1014.0 - 0.0 - Partly cloudy 10 - - - -
06/12:30pm 17.2 SW 10 16 1014.3 - 0.0 - Partly cloudy 10 - - - -
06/12:00pm 17.3 SW 11 15 1014.3 - 0.0 - Cloudy 10 - - - -
06/11:30am 16.1 SSW 9 11 1014.2 - 0.0 - Partly cloudy 10 - - - -
06/11:00am 15.9 SSW 8 12 1013.8 - 0.0 - Partly cloudy 10 - - - -
06/10:30am 16.4 NW 2 5 1013.9 - 0.0 - Partly cloudy 10 - - - -
06/10:00am 15.7 SW 1 4 1014.5 - 0.0 - Partly cloudy 10 - - - -
06/09:30am 15.1 CALM 0 0 1014.4 - 0.0 - Partly cloudy 10 - - - -
06/09:00am 14.5 SE 2 3 1014.4 - 0.0 - Cloudy 10 - - - -
06/08:30am 14.5 ESE 4 5 1014.0 - 0.0 - Cloudy 10 - - - -
06/08:00am 14.3 CALM 0 0 1014.0 - 0.0 - Cloudy 10 - - - -
06/07:30am 13.8 CALM 0 0 1013.9 - 0.0 - Cloudy 10 - - - -
06/07:00am 13.0 CALM 0 0 1013.6 - 0.0 - Partly cloudy 10 - - - -
06/06:30am 11.7 CALM 0 0 1013.5 - 0.0 - - 10 - - - -
06/06:00am 11.6 CALM 0 3 1012.7 - 0.0 - - 10 - - - -
06/05:30am 11.8 CALM 0 0 1012.6 - 0.0 - - 10 - - - -
06/05:00am 12.2 NNW 3 3 1012.2 - 0.0 - Partly cloudy 10 - - - -
06/04:30am 12.3 N 2 4 1011.8 - 0.0 - - 10 - - - -
06/04:00am 12.3 CALM 0 0 1011.7 - 0.0 - - 10 - - - -
06/03:30am 12.6 S 1 3 1011.4 - 0.0 - Partly cloudy 10 - - - -
06/03:00am 12.9 SE 3 4 1011.9 - 0.0 - Mostly cloudy 10 - - - -
06/02:30am 13.3 SSE 5 7 1012.2 - 0.0 - - 10 - - - -
06/02:00am 13.2 SSE 4 5 1013.1 - 0.0 - - 10 - - - -
06/01:30am 13.2 S 4 5 1013.0 - 0.0 - - 10 - - - -
06/01:00am 13.5 SE 5 6 1013.1 - 0.0 - - 10 - - - -
06/12:30am 13.0 SE 6 7 1013.3 - 0.0 - - 10 - - - -
06/12:00am 13.5 SE 5 7 1013.8 - 0.0 - Mostly clear 10 - - - -
 
Date/Time
EDT
Temp
°C
Wind Pressure Rain since
9am
mm
Weather Cloud Vis
km
Sea
Height
m
Swell
Dir  Spd
kts
Gust
kts
hPa Trend Height
m
Period
s
Dir
05/11:30pm 14.1 SSE 8 10 1013.8 - 0.0 - - 10 - - - -
05/11:00pm 14.1 SSE 7 8 1014.3 - 0.0 - Partly cloudy 10 - - - -
05/10:30pm 14.3 SSE 8 11 1014.8 - 0.0 - Partly cloudy 10 - - - -
05/10:00pm 15.1 SSE 8 11 1015.6 - 0.0 - Partly cloudy 10 - - - -
05/09:30pm 14.8 SSE 9 11 1015.0 - 0.0 - Partly cloudy 10 - - - -
05/09:00pm 14.9 SSE 9 13 1014.7 - 0.0 - Cloudy 10 - - - -
05/08:30pm 15.6 SE 11 14 1013.5 - 0.0 - Cloudy 10 - - - -
05/08:00pm 16.2 S 10 13 1013.5 - 0.0 - Cloudy 10 - - - -
05/07:30pm 16.7 S 11 15 1013.5 - 0.0 - Cloudy 10 - - - -
05/07:00pm 17.8 S 13 16 1013.2 - 0.0 - Partly cloudy 10 - - - -
05/06:30pm 17.9 SSW 16 20 1012.5 - 0.0 - - 10 - - - -
05/06:00pm 18.0 SSW 14 19 1012.3 - 0.0 - Mostly clear 10 - - - -
05/05:30pm 17.4 SSW 14 19 1012.1 - 0.0 - - 10 - - - -
05/05:00pm 18.1 SSW 16 20 1012.3 - 0.0 - - 10 - - - -
05/04:30pm 18.6 SSW 13 17 1012.2 - 0.0 - - 10 - - - -
05/04:00pm 19.2 SSW 12 16 1012.5 - 0.0 - - 10 - - - -
05/03:30pm 19.6 S 11 14 1012.0 - 0.0 - - 10 - - - -
05/03:00pm 18.9 SSW 11 15 1011.8 - 0.0 - - 10 - - - -
05/02:30pm 19.6 S 10 14 1012.3 - 0.0 - - 10 - - - -
05/02:00pm 19.3 SSW 10 15 1012.5 - 0.0 - - 10 - - - -
05/01:30pm 19.4 SSW 9 16 1012.4 - 0.0 - - 10 - - - -

Other Formats:

Comma delimited format used in spreadsheet applications
http://www.bom.gov.au/fwo/IDV60701/IDV60701.94870.axf

JavaScript Object Notation format (JSON) in row-major order
http://www.bom.gov.au/fwo/IDV60701/IDV60701.94870.json